Juan Manuel Galvez International Airport
MHRO : now visible

Airfield :











YOU CAN JOIN US ON...

 
LOGIN :

Register | Disclaimer

   EN    FR    IT 

 









Legend :    VFR   Marginal VFR   IFR   Intensive IFR   Very Intensive IFR
Visi :
Ceiling :
>= 8 km
>= 3000ft
5 to 8 km
1000 to 3000 ft
1500m to 5 km
500 to 1000 ft
800 to 1500m
200 to 500 ft
< 800m
< 200 ft
Symbols :   Thunderstorms  Fog  Heavy snow  Heavy precipitations  Wind > 20 kt







- Airport Elevation : 18 ft
- IATA code : RTB


MHRO - Juan Manuel Galvez International

CURRENT METAR :
  • 180200Z 06007KT CAVOK 29/26 Q1013 A2992 NOSIG

EXPIRED METARs :
  • 180100Z 06006KT CAVOK 29/26 Q1012 A2989 NOSIG
  • 180000Z 06009KT 9999 FEW026CB SCT220 30/25 Q1012 A2989 NOSIG

TAF TAF MHRO
Valid from the 18 at 00:00 until the 19 at 00:00 UTC


172225Z 1800/1824 09012KT 9999 SCT022TCU TX32/1818Z TN27/1812Z
TEMPO 1806/1810 6000 -TSRA SCT018CB SCT070
BECMG 1810/1812 9999 NSW SCT020 SCT080
No reported NOTAMs for that airfield.



MET'MAP, your aeronautical weather chart ! - Copyright ORBIFLY December 2007 - Disclaimer

ORBIFLY MET'MAP TEAM :

Programming & Development : Alexandra Zaïnal
Concept & Development : Baudouin d'Aumeries
Co-Development & Prog : Marc-Olivier Méhu
Technical & hardware support : Manuel Goepfert

Contact : metmap@orbifly.com




SOURCES & CREDITS :

   NOAA       Earth
Advisory